createdAt,value
2018-03-23T00:02:24.941Z,98844.42
2018-03-23T00:08:29.551Z,98837.81
2018-03-23T00:14:34.396Z,98829.64
2018-03-23T00:20:38.890Z,98833.93
2018-03-23T00:26:43.483Z,98835.30
2018-03-23T00:32:49.748Z,98827.36
2018-03-23T00:38:54.481Z,98824.05
2018-03-23T00:44:59.841Z,98818.83
2018-03-23T00:51:04.353Z,98823.53
2018-03-23T00:57:08.857Z,98820.41
2018-03-23T01:03:13.545Z,98821.47
2018-03-23T01:09:19.630Z,98814.73
2018-03-23T01:15:24.165Z,98817.16
2018-03-23T01:21:28.900Z,98811.26
2018-03-23T01:27:34.317Z,98812.05
2018-03-23T01:33:38.872Z,98818.43
2018-03-23T01:39:43.462Z,98802.53
2018-03-23T01:45:48.213Z,98796.13
2018-03-23T01:51:53.619Z,98782.14
2018-03-23T01:57:58.277Z,98785.28
2018-03-23T02:04:02.866Z,98785.12
2018-03-23T02:10:07.400Z,98784.02
2018-03-23T02:16:11.985Z,98785.38
2018-03-23T02:22:17.737Z,98777.63
2018-03-23T02:28:23.236Z,98775.67
2018-03-23T02:34:28.101Z,98768.91
2018-03-23T02:40:32.860Z,98760.95
2018-03-23T02:46:38.230Z,98763.03
2018-03-23T02:52:42.719Z,98755.11
2018-03-23T02:58:47.603Z,98746.54
2018-03-23T03:04:52.879Z,98745.42
2018-03-23T03:10:57.423Z,98738.67
2018-03-23T03:17:01.927Z,98746.02
2018-03-23T03:23:06.585Z,98739.78
2018-03-23T03:29:11.081Z,98747.44
2018-03-23T03:35:15.904Z,98741.55
2018-03-23T03:41:20.898Z,98736.23
2018-03-23T03:47:25.696Z,98728.41
2018-03-23T03:53:31.023Z,98729.52
2018-03-23T03:59:36.402Z,98731.23
2018-03-23T04:05:41.027Z,98723.34
2018-03-23T04:11:45.903Z,98729.09
2018-03-23T04:17:51.231Z,98719.05
2018-03-23T04:23:55.862Z,98722.04
2018-03-23T04:30:00.534Z,98713.63
2018-03-23T04:36:06.241Z,98706.99
2018-03-23T04:42:10.907Z,98705.58
2018-03-23T04:48:15.489Z,98695.24
2018-03-23T04:54:20.586Z,98686.39
2018-03-23T05:00:26.146Z,98686.44
2018-03-23T05:06:30.685Z,98679.43
2018-03-23T05:12:35.351Z,98681.86
2018-03-23T05:18:39.914Z,98677.31
2018-03-23T05:24:44.699Z,98668.61
2018-03-23T05:30:49.296Z,98676.23
2018-03-23T05:36:53.906Z,98670.13
2018-03-23T05:42:58.481Z,98667.92
2018-03-23T05:49:03.145Z,98672.11
2018-03-23T05:55:07.790Z,98667.52
2018-03-23T06:01:12.441Z,98667.23
2018-03-23T06:07:18.717Z,98666.50
2018-03-23T06:13:23.335Z,98657.79
2018-03-23T06:19:28.271Z,98656.23
2018-03-23T06:25:33.858Z,98655.44
2018-03-23T06:31:38.507Z,98651.72
2018-03-23T06:37:43.853Z,98653.17
2018-03-23T06:43:50.076Z,98652.45
2018-03-23T06:49:54.703Z,98652.54
2018-03-23T06:55:59.260Z,98649.45
2018-03-23T07:02:04.762Z,98648.16
2018-03-23T07:08:09.358Z,98649.67
2018-03-23T07:14:14.079Z,98643.20
2018-03-23T07:20:19.765Z,98645.13
2018-03-23T07:26:24.313Z,98632.60
2018-03-23T07:32:28.961Z,98628.58
2018-03-23T07:38:33.575Z,98633.64
2018-03-23T07:44:38.355Z,98640.62
2018-03-23T07:50:42.937Z,98651.36
2018-03-23T07:56:48.256Z,98647.16
2018-03-23T08:02:53.048Z,98644.45
2018-03-23T08:08:57.561Z,98644.37
2018-03-23T08:15:02.932Z,98639.22
2018-03-23T08:21:07.544Z,98637.62
2018-03-23T08:27:12.102Z,98645.86
2018-03-23T08:33:17.414Z,98639.22
2018-03-23T08:39:22.304Z,98643.48
2018-03-23T08:45:26.821Z,98639.88
2018-03-23T08:51:31.655Z,98640.80
2018-03-23T08:57:36.202Z,98627.26
2018-03-23T09:03:40.853Z,98612.69
2018-03-23T09:09:45.404Z,98608.30
2018-03-23T09:15:50.120Z,98606.67
2018-03-23T09:21:54.743Z,98607.77
2018-03-23T09:27:59.258Z,98602.93
2018-03-23T09:34:03.869Z,98604.02
2018-03-23T09:40:08.384Z,98605.58
2018-03-23T09:46:13.162Z,98592.66
2018-03-23T09:52:18.357Z,98595.06
2018-03-23T09:58:23.691Z,98586.87
2018-03-23T10:04:28.414Z,98583.68
2018-03-23T10:10:32.983Z,98571.17
2018-03-23T10:16:38.750Z,98560.67
2018-03-23T10:22:43.241Z,98557.28
2018-03-23T10:28:47.972Z,98544.91
2018-03-23T10:34:52.592Z,98543.28
2018-03-23T10:40:57.121Z,98547.45
2018-03-23T10:47:01.675Z,98540.11
2018-03-23T10:53:06.250Z,98546.23
2018-03-23T10:59:10.962Z,98540.08
2018-03-23T11:05:15.944Z,98525.00
2018-03-23T11:11:21.828Z,98514.13
2018-03-23T11:17:26.480Z,98516.23
2018-03-23T11:23:31.071Z,98508.66
2018-03-23T11:29:35.799Z,98500.61
2018-03-23T11:35:40.514Z,98503.17
2018-03-23T11:41:45.138Z,98498.30
2018-03-23T11:47:50.929Z,98486.88
2018-03-23T11:53:55.499Z,98468.86
2018-03-23T12:00:00.459Z,98461.08
2018-03-23T12:06:04.966Z,98462.61
2018-03-23T12:12:10.356Z,98453.66
2018-03-23T12:18:15.057Z,98438.23
2018-03-23T12:24:20.353Z,98433.80
2018-03-23T12:30:25.026Z,98433.23
2018-03-23T12:36:29.871Z,98423.98
2018-03-23T12:42:34.369Z,98422.66
2018-03-23T12:48:38.885Z,98411.52
2018-03-23T12:54:43.559Z,98413.41
2018-03-23T13:00:48.585Z,98403.22
2018-03-23T13:06:53.439Z,98394.02
2018-03-23T13:12:57.923Z,98383.44
2018-03-23T13:19:02.411Z,98380.97
2018-03-23T13:25:06.944Z,98393.87
2018-03-23T13:31:11.504Z,98385.17
2018-03-23T13:37:16.480Z,98380.44
2018-03-23T13:43:21.951Z,98360.23
2018-03-23T13:49:26.433Z,98363.37
2018-03-23T13:55:30.987Z,98356.60
2018-03-23T14:01:41.547Z,98361.27
2018-03-23T14:07:46.527Z,98352.97
2018-03-23T14:13:51.264Z,98348.10
2018-03-23T14:19:56.539Z,98339.65
2018-03-23T14:26:02.041Z,98338.58
2018-03-23T14:32:06.895Z,98339.91
2018-03-23T14:38:12.430Z,98324.96
2018-03-23T14:44:18.590Z,98322.06
2018-03-23T14:50:23.253Z,98321.59
2018-03-23T14:56:28.698Z,98309.92
2018-03-23T15:02:33.396Z,98308.70
2018-03-23T15:08:37.973Z,98303.61
2018-03-23T15:14:43.456Z,98304.04
2018-03-23T15:20:48.113Z,98297.14
2018-03-23T15:26:52.719Z,98299.92
2018-03-23T15:32:57.245Z,98298.63
2018-03-23T15:39:02.660Z,98296.34
2018-03-23T15:45:07.956Z,98298.30
2018-03-23T15:51:12.479Z,98300.77
2018-03-23T15:57:17.589Z,98295.50
2018-03-23T16:03:22.460Z,98295.66
2018-03-23T16:09:27.312Z,98286.32
2018-03-23T16:15:32.764Z,98292.70
2018-03-23T16:21:38.873Z,98287.06
2018-03-23T16:27:43.530Z,98288.90
2018-03-23T16:33:48.806Z,98294.81
2018-03-23T16:39:53.947Z,98291.78
2018-03-23T16:45:58.592Z,98282.58
2018-03-23T16:52:03.126Z,98277.41
2018-03-23T16:58:08.567Z,98288.80
2018-03-23T17:04:13.084Z,98286.78
2018-03-23T17:10:18.710Z,98285.55
2018-03-23T17:16:23.393Z,98277.41
2018-03-23T17:22:27.876Z,98290.27
2018-03-23T17:28:33.139Z,98283.52
2018-03-23T17:34:37.643Z,98291.05
2018-03-23T17:40:42.312Z,98291.88
2018-03-23T17:46:46.900Z,98285.14
2018-03-23T17:52:51.432Z,98288.66
2018-03-23T17:58:55.943Z,98287.22
2018-03-23T18:05:00.608Z,98293.71
2018-03-23T18:11:05.975Z,98283.14
2018-03-23T18:17:10.524Z,98287.03
2018-03-23T18:23:16.460Z,98276.47
2018-03-23T18:29:21.211Z,98277.59
2018-03-23T18:35:25.761Z,98278.31
2018-03-23T18:41:30.670Z,98276.16
2018-03-23T18:47:35.211Z,98281.28
2018-03-23T18:53:39.855Z,98294.91
2018-03-23T18:59:44.581Z,98293.48
2018-03-23T19:05:49.667Z,98288.88
2018-03-23T19:11:54.231Z,98279.23
2018-03-23T19:17:58.770Z,98279.23
2018-03-23T19:24:03.266Z,98281.69
2018-03-23T19:30:07.838Z,98272.85
2018-03-23T19:36:13.073Z,98278.79
2018-03-23T19:42:18.134Z,98273.25
2018-03-23T19:48:22.653Z,98267.72
2018-03-23T19:54:27.325Z,98260.35
2018-03-23T20:00:31.899Z,98264.05
2018-03-23T20:06:36.573Z,98267.39
2018-03-23T20:12:41.190Z,98257.91
2018-03-23T20:18:46.650Z,98250.39
2018-03-23T20:24:51.321Z,98257.48
2018-03-23T20:30:56.319Z,98246.08
2018-03-23T20:37:00.785Z,98250.10
2018-03-23T20:43:06.030Z,98251.53
2018-03-23T20:49:10.595Z,98246.58
2018-03-23T20:55:15.338Z,98249.27
2018-03-23T21:01:20.526Z,98246.18
2018-03-23T21:07:25.159Z,98243.60
2018-03-23T21:13:29.628Z,98236.25
2018-03-23T21:19:34.224Z,98238.92
2018-03-23T21:25:39.015Z,98237.69
2018-03-23T21:31:43.472Z,98235.81
2018-03-23T21:37:49.718Z,98238.76
2018-03-23T21:43:54.497Z,98236.36
2018-03-23T21:50:00.101Z,98233.78
2018-03-23T21:56:04.582Z,98240.66
2018-03-23T22:02:09.146Z,98235.33
2018-03-23T22:08:13.745Z,98224.28
2018-03-23T22:14:18.358Z,98222.95
2018-03-23T22:20:22.903Z,98223.48
2018-03-23T22:26:27.419Z,98227.00
2018-03-23T22:32:32.738Z,98231.03
2018-03-23T22:38:37.559Z,98234.05
2018-03-23T22:44:42.338Z,98225.19
2018-03-23T22:50:47.219Z,98228.38
2018-03-23T22:56:52.155Z,98224.36
2018-03-23T23:02:56.696Z,98223.73
2018-03-23T23:09:01.197Z,98213.20
2018-03-23T23:15:06.446Z,98218.59
2018-03-23T23:21:11.145Z,98216.53
2018-03-23T23:27:16.443Z,98214.75
2018-03-23T23:33:21.359Z,98217.19
2018-03-23T23:39:26.112Z,98215.06
2018-03-23T23:45:30.683Z,98220.47
2018-03-23T23:51:35.607Z,98205.91
2018-03-23T23:57:41.039Z,98215.41
